Terminal Aerodrome Forecast
Issued by NWS La Crosse, WI

Home | Current Version | Previous Version | Text Only | Print | Product List | Glossary On
Versions: 1 2 3 4 5 6 7 8 9 10 11 12 13 14 15 16 17 18 19 20 21 22 23 24 25 26 27 28 29 30 31 32 33 34 35 36
000
FTUS43 KARX 042010 AAA
TAFRST
TAF AMD
KRST 042010Z 0420/0518 31015G23KT P6SM FEW030
      TEMPO 0420/0422 BKN030
     FM050000 30012KT P6SM SKC
     FM050600 30007KT P6SM SKC
     FM051500 26009KT P6SM SKC=

USA.gov is the U.S. government's official web portal to all federal, state and local government web resources and services.